sensor_id;sensor_type;location;lat;lon;timestamp;pressure;altitude;pressure_sealevel;temperature;humidity
4830;BME280;2429;52.586;14.322;2022-07-06T00:01:48;101941.53;;;12.63;60.09
4830;BME280;2429;52.586;14.322;2022-07-06T00:04:15;101944.94;;;12.65;59.93
4830;BME280;2429;52.586;14.322;2022-07-06T00:06:42;101948.69;;;12.76;60.00
4830;BME280;2429;52.586;14.322;2022-07-06T00:09:09;101942.47;;;12.93;60.19
4830;BME280;2429;52.586;14.322;2022-07-06T00:11:36;101943.06;;;12.83;60.51
4830;BME280;2429;52.586;14.322;2022-07-06T00:14:04;101933.69;;;12.77;60.92
4830;BME280;2429;52.586;14.322;2022-07-06T00:16:31;101947.25;;;12.71;60.82
4830;BME280;2429;52.586;14.322;2022-07-06T00:18:59;101946.91;;;12.61;61.66
4830;BME280;2429;52.586;14.322;2022-07-06T00:21:25;101950.91;;;12.52;62.33
4830;BME280;2429;52.586;14.322;2022-07-06T00:23:52;101960.25;;;12.58;62.18
4830;BME280;2429;52.586;14.322;2022-07-06T00:26:20;101960.19;;;12.75;61.34
4830;BME280;2429;52.586;14.322;2022-07-06T00:28:46;101961.47;;;12.84;61.08
4830;BME280;2429;52.586;14.322;2022-07-06T00:31:13;101962.22;;;12.86;61.31
4830;BME280;2429;52.586;14.322;2022-07-06T00:33:41;101970.34;;;12.67;61.99
4830;BME280;2429;52.586;14.322;2022-07-06T00:36:08;101965.72;;;12.55;62.64
4830;BME280;2429;52.586;14.322;2022-07-06T00:38:35;101969.28;;;12.38;63.00
4830;BME280;2429;52.586;14.322;2022-07-06T00:41:02;101970.84;;;12.42;63.46
4830;BME280;2429;52.586;14.322;2022-07-06T00:43:44;101964.28;;;12.49;63.53
4830;BME280;2429;52.586;14.322;2022-07-06T00:46:13;101964.00;;;12.38;64.37
4830;BME280;2429;52.586;14.322;2022-07-06T00:48:40;101964.69;;;12.25;64.94
4830;BME280;2429;52.586;14.322;2022-07-06T00:51:07;101969.34;;;12.20;65.31
4830;BME280;2429;52.586;14.322;2022-07-06T00:53:34;101967.16;;;12.29;65.52
4830;BME280;2429;52.586;14.322;2022-07-06T00:56:01;101971.94;;;12.38;65.50
4830;BME280;2429;52.586;14.322;2022-07-06T00:58:28;101970.72;;;12.27;65.82
4830;BME280;2429;52.586;14.322;2022-07-06T01:00:55;101973.97;;;12.33;65.36
4830;BME280;2429;52.586;14.322;2022-07-06T01:03:22;101972.13;;;12.51;65.28
4830;BME280;2429;52.586;14.322;2022-07-06T01:05:49;101979.88;;;12.54;65.07
4830;BME280;2429;52.586;14.322;2022-07-06T01:08:17;101977.56;;;12.64;64.75
4830;BME280;2429;52.586;14.322;2022-07-06T01:10:44;101976.19;;;12.56;64.94
4830;BME280;2429;52.586;14.322;2022-07-06T01:13:11;101971.69;;;12.42;65.39
4830;BME280;2429;52.586;14.322;2022-07-06T01:15:38;101962.28;;;12.37;65.93
4830;BME280;2429;52.586;14.322;2022-07-06T01:18:05;101957.19;;;12.18;66.71
4830;BME280;2429;52.586;14.322;2022-07-06T01:20:32;101951.19;;;12.14;66.67
4830;BME280;2429;52.586;14.322;2022-07-06T01:22:59;101951.81;;;12.19;67.25
4830;BME280;2429;52.586;14.322;2022-07-06T01:25:26;101954.13;;;12.25;67.22
4830;BME280;2429;52.586;14.322;2022-07-06T01:27:53;101963.50;;;12.31;66.68
4830;BME280;2429;52.586;14.322;2022-07-06T01:30:21;101955.59;;;12.31;66.81
4830;BME280;2429;52.586;14.322;2022-07-06T01:32:48;101960.63;;;12.36;66.24
4830;BME280;2429;52.586;14.322;2022-07-06T01:35:15;101959.56;;;12.38;66.43
4830;BME280;2429;52.586;14.322;2022-07-06T01:37:42;101957.69;;;12.24;67.16
4830;BME280;2429;52.586;14.322;2022-07-06T01:40:10;101958.13;;;12.33;66.95
4830;BME280;2429;52.586;14.322;2022-07-06T01:42:38;101964.78;;;12.24;66.96
4830;BME280;2429;52.586;14.322;2022-07-06T01:45:06;101955.00;;;12.08;67.95
4830;BME280;2429;52.586;14.322;2022-07-06T01:47:33;101962.59;;;12.15;67.86
4830;BME280;2429;52.586;14.322;2022-07-06T01:50:01;101956.81;;;12.08;67.97
4830;BME280;2429;52.586;14.322;2022-07-06T01:52:30;101959.59;;;12.05;67.95
4830;BME280;2429;52.586;14.322;2022-07-06T01:54:56;101960.28;;;12.08;68.03
4830;BME280;2429;52.586;14.322;2022-07-06T01:57:23;101964.88;;;12.05;68.40
4830;BME280;2429;52.586;14.322;2022-07-06T01:59:50;101966.22;;;11.96;68.59
4830;BME280;2429;52.586;14.322;2022-07-06T02:02:17;101965.00;;;11.86;68.75
4830;BME280;2429;52.586;14.322;2022-07-06T02:04:45;101959.13;;;11.81;69.30
4830;BME280;2429;52.586;14.322;2022-07-06T02:07:12;101959.34;;;11.76;69.51
4830;BME280;2429;52.586;14.322;2022-07-06T02:09:39;101955.53;;;11.82;69.85
4830;BME280;2429;52.586;14.322;2022-07-06T02:12:06;101966.06;;;11.82;70.08
4830;BME280;2429;52.586;14.322;2022-07-06T02:14:33;101963.34;;;11.83;70.15
4830;BME280;2429;52.586;14.322;2022-07-06T02:17:00;101969.91;;;11.76;70.12
4830;BME280;2429;52.586;14.322;2022-07-06T02:19:27;101970.16;;;11.71;70.43
4830;BME280;2429;52.586;14.322;2022-07-06T02:21:55;101972.47;;;11.78;70.47
4830;BME280;2429;52.586;14.322;2022-07-06T02:24:22;101976.88;;;11.77;70.58
4830;BME280;2429;52.586;14.322;2022-07-06T02:26:49;101977.44;;;11.84;70.60
4830;BME280;2429;52.586;14.322;2022-07-06T02:29:16;101978.59;;;11.78;70.76
4830;BME280;2429;52.586;14.322;2022-07-06T02:31:43;101977.19;;;11.88;70.61
4830;BME280;2429;52.586;14.322;2022-07-06T02:34:10;101974.13;;;11.96;70.58
4830;BME280;2429;52.586;14.322;2022-07-06T02:36:37;101980.81;;;12.03;70.36
4830;BME280;2429;52.586;14.322;2022-07-06T02:39:04;101973.56;;;12.07;70.15
4830;BME280;2429;52.586;14.322;2022-07-06T02:41:31;101975.38;;;12.06;69.85
4830;BME280;2429;52.586;14.322;2022-07-06T02:43:58;101977.03;;;11.91;70.20
4830;BME280;2429;52.586;14.322;2022-07-06T02:46:25;101970.50;;;11.81;70.00
4830;BME280;2429;52.586;14.322;2022-07-06T02:48:52;101978.81;;;11.73;70.82
4830;BME280;2429;52.586;14.322;2022-07-06T02:51:20;101979.34;;;11.80;70.56
4830;BME280;2429;52.586;14.322;2022-07-06T02:53:46;101976.47;;;11.85;70.42
4830;BME280;2429;52.586;14.322;2022-07-06T02:56:13;101977.81;;;11.76;71.10
4830;BME280;2429;52.586;14.322;2022-07-06T02:58:40;101986.25;;;11.83;71.13
4830;BME280;2429;52.586;14.322;2022-07-06T03:01:07;101987.59;;;11.74;71.84
4830;BME280;2429;52.586;14.322;2022-07-06T03:03:34;101988.38;;;11.76;71.99
4830;BME280;2429;52.586;14.322;2022-07-06T03:06:02;101992.38;;;11.83;72.25
4830;BME280;2429;52.586;14.322;2022-07-06T03:08:29;101985.34;;;11.84;72.70
4830;BME280;2429;52.586;14.322;2022-07-06T03:10:56;101998.97;;;11.92;71.73
4830;BME280;2429;52.586;14.322;2022-07-06T03:13:23;101991.69;;;11.97;71.03
4830;BME280;2429;52.586;14.322;2022-07-06T03:15:50;101990.38;;;11.88;71.31
4830;BME280;2429;52.586;14.322;2022-07-06T03:18:17;101999.94;;;11.91;71.31
4830;BME280;2429;52.586;14.322;2022-07-06T03:20:45;101998.56;;;12.00;70.94
4830;BME280;2429;52.586;14.322;2022-07-06T03:23:12;101993.34;;;11.82;71.79
4830;BME280;2429;52.586;14.322;2022-07-06T03:25:39;102004.09;;;11.95;71.73
4830;BME280;2429;52.586;14.322;2022-07-06T03:28:06;102009.13;;;12.00;70.99
4830;BME280;2429;52.586;14.322;2022-07-06T03:30:33;102002.44;;;12.10;71.10
4830;BME280;2429;52.586;14.322;2022-07-06T03:33:00;102010.34;;;12.10;71.10
4830;BME280;2429;52.586;14.322;2022-07-06T03:35:27;102009.81;;;12.21;71.70
4830;BME280;2429;52.586;14.322;2022-07-06T03:37:54;102020.28;;;12.22;71.82
4830;BME280;2429;52.586;14.322;2022-07-06T03:40:21;102020.22;;;12.24;71.90
4830;BME280;2429;52.586;14.322;2022-07-06T03:42:49;102016.59;;;12.25;72.01
4830;BME280;2429;52.586;14.322;2022-07-06T03:45:16;102026.09;;;12.29;71.69
4830;BME280;2429;52.586;14.322;2022-07-06T03:47:42;102032.16;;;12.47;70.79
4830;BME280;2429;52.586;14.322;2022-07-06T03:50:10;102032.72;;;12.54;69.94
4830;BME280;2429;52.586;14.322;2022-07-06T03:52:37;102033.22;;;12.60;69.68
4830;BME280;2429;52.586;14.322;2022-07-06T03:55:10;102030.16;;;12.68;68.52
4830;BME280;2429;52.586;14.322;2022-07-06T03:57:40;102031.88;;;12.69;68.06
4830;BME280;2429;52.586;14.322;2022-07-06T04:00:08;102030.31;;;12.65;67.79
4830;BME280;2429;52.586;14.322;2022-07-06T04:02:35;102030.16;;;12.68;67.46
4830;BME280;2429;52.586;14.322;2022-07-06T04:05:03;102035.88;;;12.76;67.72
4830;BME280;2429;52.586;14.322;2022-07-06T04:07:30;102042.44;;;12.69;69.57
4830;BME280;2429;52.586;14.322;2022-07-06T04:09:57;102030.75;;;12.57;71.34
4830;BME280;2429;52.586;14.322;2022-07-06T04:12:25;102035.16;;;12.41;73.30
4830;BME280;2429;52.586;14.322;2022-07-06T04:14:52;102038.28;;;12.32;74.83
4830;BME280;2429;52.586;14.322;2022-07-06T04:17:19;102040.28;;;12.26;75.72
4830;BME280;2429;52.586;14.322;2022-07-06T04:20:05;102037.97;;;12.20;76.59
4830;BME280;2429;52.586;14.322;2022-07-06T04:22:32;102037.56;;;12.28;76.14
4830;BME280;2429;52.586;14.322;2022-07-06T04:24:59;102043.56;;;12.32;76.80
4830;BME280;2429;52.586;14.322;2022-07-06T04:27:27;102039.38;;;12.27;77.21
4830;BME280;2429;52.586;14.322;2022-07-06T04:29:54;102041.31;;;12.24;76.84
4830;BME280;2429;52.586;14.322;2022-07-06T04:32:20;102035.34;;;12.20;76.68
4830;BME280;2429;52.586;14.322;2022-07-06T04:34:51;102043.50;;;12.16;76.74
4830;BME280;2429;52.586;14.322;2022-07-06T04:37:18;102048.78;;;12.16;76.74
4830;BME280;2429;52.586;14.322;2022-07-06T04:39:45;102042.56;;;12.17;77.18
4830;BME280;2429;52.586;14.322;2022-07-06T04:42:12;102049.94;;;12.27;77.40
4830;BME280;2429;52.586;14.322;2022-07-06T04:44:39;102059.31;;;12.33;78.00
4830;BME280;2429;52.586;14.322;2022-07-06T04:47:06;102056.06;;;12.28;77.63
4830;BME280;2429;52.586;14.322;2022-07-06T04:49:34;102061.34;;;12.28;76.87
4830;BME280;2429;52.586;14.322;2022-07-06T04:52:01;102048.13;;;12.28;76.84
4830;BME280;2429;52.586;14.322;2022-07-06T04:54:28;102041.84;;;12.31;77.16
4830;BME280;2429;52.586;14.322;2022-07-06T04:56:55;102036.22;;;12.21;77.43
4830;BME280;2429;52.586;14.322;2022-07-06T05:02:15;102026.28;;;12.42;77.55
4830;BME280;2429;52.586;14.322;2022-07-06T05:04:42;102031.28;;;12.31;78.65
4830;BME280;2429;52.586;14.322;2022-07-06T05:07:09;102035.69;;;12.48;78.32
4830;BME280;2429;52.586;14.322;2022-07-06T05:09:36;102035.78;;;12.62;77.37
4830;BME280;2429;52.586;14.322;2022-07-06T05:12:03;102034.44;;;12.71;77.74
4830;BME280;2429;52.586;14.322;2022-07-06T05:14:30;102040.91;;;12.81;77.69
4830;BME280;2429;52.586;14.322;2022-07-06T05:16:58;102037.09;;;12.87;76.79
4830;BME280;2429;52.586;14.322;2022-07-06T05:19:24;102038.72;;;13.05;75.96
4830;BME280;2429;52.586;14.322;2022-07-06T05:21:51;102045.38;;;12.96;75.75
4830;BME280;2429;52.586;14.322;2022-07-06T05:24:19;102040.00;;;12.98;75.61
4830;BME280;2429;52.586;14.322;2022-07-06T05:26:46;102039.44;;;13.09;75.26
4830;BME280;2429;52.586;14.322;2022-07-06T05:29:13;102040.09;;;13.12;75.60
4830;BME280;2429;52.586;14.322;2022-07-06T05:31:40;102044.00;;;13.37;74.01
4830;BME280;2429;52.586;14.322;2022-07-06T05:34:07;102036.28;;;13.48;74.86
4830;BME280;2429;52.586;14.322;2022-07-06T05:36:34;102030.97;;;13.64;74.33
4830;BME280;2429;52.586;14.322;2022-07-06T05:39:02;102025.59;;;13.80;73.42
4830;BME280;2429;52.586;14.322;2022-07-06T05:41:29;102026.56;;;13.94;72.79
4830;BME280;2429;52.586;14.322;2022-07-06T05:43:57;102012.63;;;14.20;70.97
4830;BME280;2429;52.586;14.322;2022-07-06T05:46:25;102018.19;;;14.73;69.64
4830;BME280;2429;52.586;14.322;2022-07-06T05:48:52;102021.97;;;15.25;67.52
4830;BME280;2429;52.586;14.322;2022-07-06T05:51:38;102014.69;;;16.08;64.76
4830;BME280;2429;52.586;14.322;2022-07-06T05:54:06;102019.22;;;16.81;60.09
4830;BME280;2429;52.586;14.322;2022-07-06T05:56:33;102019.00;;;17.22;58.26
4830;BME280;2429;52.586;14.322;2022-07-06T05:59:01;102011.41;;;17.64;55.61
4830;BME280;2429;52.586;14.322;2022-07-06T06:01:28;102017.09;;;18.06;53.08
4830;BME280;2429;52.586;14.322;2022-07-06T06:03:55;102021.09;;;18.23;51.31
4830;BME280;2429;52.586;14.322;2022-07-06T06:06:22;102013.56;;;18.73;48.15
4830;BME280;2429;52.586;14.322;2022-07-06T06:08:49;102024.88;;;19.09;46.75
4830;BME280;2429;52.586;14.322;2022-07-06T06:11:16;102028.28;;;19.33;45.49
4830;BME280;2429;52.586;14.322;2022-07-06T06:13:44;102029.81;;;19.25;45.56
4830;BME280;2429;52.586;14.322;2022-07-06T06:16:11;102023.47;;;19.80;44.92
4830;BME280;2429;52.586;14.322;2022-07-06T06:18:38;102017.91;;;20.14;44.57
4830;BME280;2429;52.586;14.322;2022-07-06T06:21:08;102023.13;;;20.15;44.69
4830;BME280;2429;52.586;14.322;2022-07-06T06:23:36;102029.59;;;20.44;42.50
4830;BME280;2429;52.586;14.322;2022-07-06T06:26:03;102026.97;;;20.23;42.75
4830;BME280;2429;52.586;14.322;2022-07-06T06:28:30;102028.00;;;20.31;42.86
4830;BME280;2429;52.586;14.322;2022-07-06T06:30:57;102035.66;;;20.46;42.77
4830;BME280;2429;52.586;14.322;2022-07-06T06:33:24;102023.94;;;20.87;41.92
4830;BME280;2429;52.586;14.322;2022-07-06T06:35:52;102021.88;;;21.11;41.84
4830;BME280;2429;52.586;14.322;2022-07-06T06:38:20;102021.88;;;21.50;41.08
4830;BME280;2429;52.586;14.322;2022-07-06T06:40:49;102021.03;;;21.39;42.40
4830;BME280;2429;52.586;14.322;2022-07-06T06:43:16;102014.09;;;21.76;40.45
4830;BME280;2429;52.586;14.322;2022-07-06T06:45:43;102010.72;;;21.84;40.62
4830;BME280;2429;52.586;14.322;2022-07-06T06:48:11;102013.91;;;21.97;40.40
4830;BME280;2429;52.586;14.322;2022-07-06T06:50:44;102007.06;;;22.13;39.90
4830;BME280;2429;52.586;14.322;2022-07-06T06:53:11;102007.44;;;22.27;39.04
4830;BME280;2429;52.586;14.322;2022-07-06T06:55:38;102008.13;;;22.30;38.94
4830;BME280;2429;52.586;14.322;2022-07-06T06:58:05;102002.59;;;22.31;38.32
4830;BME280;2429;52.586;14.322;2022-07-06T07:00:32;102005.53;;;22.10;38.35
4830;BME280;2429;52.586;14.322;2022-07-06T07:02:59;102004.63;;;21.82;38.77
4830;BME280;2429;52.586;14.322;2022-07-06T07:05:27;102000.94;;;22.30;38.33
4830;BME280;2429;52.586;14.322;2022-07-06T07:07:54;101996.25;;;22.42;36.64
4830;BME280;2429;52.586;14.322;2022-07-06T07:10:30;102002.38;;;22.98;35.22
4830;BME280;2429;52.586;14.322;2022-07-06T07:12:57;101999.94;;;23.23;34.34
4830;BME280;2429;52.586;14.322;2022-07-06T07:15:24;101995.16;;;23.53;34.48
4830;BME280;2429;52.586;14.322;2022-07-06T07:17:51;101999.19;;;23.57;33.87
4830;BME280;2429;52.586;14.322;2022-07-06T07:20:19;102003.06;;;23.80;33.41
4830;BME280;2429;52.586;14.322;2022-07-06T07:22:46;102006.00;;;23.95;33.59
4830;BME280;2429;52.586;14.322;2022-07-06T07:25:13;102003.81;;;24.25;32.55
4830;BME280;2429;52.586;14.322;2022-07-06T07:27:40;102014.28;;;24.36;32.15
4830;BME280;2429;52.586;14.322;2022-07-06T07:30:07;102002.91;;;24.43;31.63
4830;BME280;2429;52.586;14.322;2022-07-06T07:32:34;102006.00;;;24.30;32.77
4830;BME280;2429;52.586;14.322;2022-07-06T07:35:01;101997.81;;;24.40;33.51
4830;BME280;2429;52.586;14.322;2022-07-06T07:37:29;102007.47;;;24.50;32.14
4830;BME280;2429;52.586;14.322;2022-07-06T07:39:56;102017.75;;;24.55;30.98
4830;BME280;2429;52.586;14.322;2022-07-06T07:42:23;102005.53;;;24.85;30.21
4830;BME280;2429;52.586;14.322;2022-07-06T07:44:50;102006.13;;;25.30;29.88
4830;BME280;2429;52.586;14.322;2022-07-06T07:47:17;102007.91;;;25.63;30.11
4830;BME280;2429;52.586;14.322;2022-07-06T07:49:44;102008.78;;;25.80;29.67
4830;BME280;2429;52.586;14.322;2022-07-06T07:52:11;102004.03;;;25.82;29.63
4830;BME280;2429;52.586;14.322;2022-07-06T07:54:38;101996.44;;;25.85;28.79
4830;BME280;2429;52.586;14.322;2022-07-06T07:57:13;102009.63;;;25.39;28.55
4830;BME280;2429;52.586;14.322;2022-07-06T07:59:40;102004.38;;;24.96;29.44
4830;BME280;2429;52.586;14.322;2022-07-06T08:02:09;101995.13;;;25.65;29.14
4830;BME280;2429;52.586;14.322;2022-07-06T08:04:36;102000.38;;;25.25;29.63
4830;BME280;2429;52.586;14.322;2022-07-06T08:07:03;101998.38;;;25.11;29.58
4830;BME280;2429;52.586;14.322;2022-07-06T08:09:30;102004.53;;;23.30;31.45
4830;BME280;2429;52.586;14.322;2022-07-06T08:11:58;102000.78;;;21.94;33.57
4830;BME280;2429;52.586;14.322;2022-07-06T08:14:28;101995.66;;;22.48;32.75
4830;BME280;2429;52.586;14.322;2022-07-06T08:16:55;101985.97;;;23.90;30.92
4830;BME280;2429;52.586;14.322;2022-07-06T08:19:21;101984.34;;;24.90;29.87
4830;BME280;2429;52.586;14.322;2022-07-06T08:21:49;101985.63;;;24.19;30.07
4830;BME280;2429;52.586;14.322;2022-07-06T08:24:16;101989.81;;;23.61;31.29
4830;BME280;2429;52.586;14.322;2022-07-06T08:26:43;101990.91;;;22.32;32.79
4830;BME280;2429;52.586;14.322;2022-07-06T08:29:10;101998.97;;;21.85;33.83
4830;BME280;2429;52.586;14.322;2022-07-06T08:31:37;101990.59;;;21.21;35.30
4830;BME280;2429;52.586;14.322;2022-07-06T08:34:22;101997.84;;;20.70;35.89
4830;BME280;2429;52.586;14.322;2022-07-06T08:36:49;101999.38;;;20.22;36.20
4830;BME280;2429;52.586;14.322;2022-07-06T08:39:16;101998.88;;;20.07;36.27
4830;BME280;2429;52.586;14.322;2022-07-06T08:41:45;101999.09;;;19.94;36.20
4830;BME280;2429;52.586;14.322;2022-07-06T08:44:15;102008.22;;;19.92;37.02
4830;BME280;2429;52.586;14.322;2022-07-06T08:46:42;102008.28;;;20.02;37.69
4830;BME280;2429;52.586;14.322;2022-07-06T08:49:12;102005.88;;;20.80;36.71
4830;BME280;2429;52.586;14.322;2022-07-06T08:51:40;102011.66;;;20.85;36.65
4830;BME280;2429;52.586;14.322;2022-07-06T08:54:07;102004.09;;;21.59;35.77
4830;BME280;2429;52.586;14.322;2022-07-06T08:56:35;101996.53;;;22.01;34.09
4830;BME280;2429;52.586;14.322;2022-07-06T08:59:02;102006.78;;;21.68;34.79
4830;BME280;2429;52.586;14.322;2022-07-06T09:01:30;102003.56;;;21.45;34.04
4830;BME280;2429;52.586;14.322;2022-07-06T09:03:57;102006.50;;;21.03;35.74
4830;BME280;2429;52.586;14.322;2022-07-06T09:06:26;102012.84;;;21.31;35.38
4830;BME280;2429;52.586;14.322;2022-07-06T09:08:54;102001.44;;;22.89;33.47
4830;BME280;2429;52.586;14.322;2022-07-06T09:11:22;101986.38;;;23.50;31.89
4830;BME280;2429;52.586;14.322;2022-07-06T09:13:51;101988.13;;;23.34;31.42
4830;BME280;2429;52.586;14.322;2022-07-06T09:16:24;101996.00;;;21.88;33.01
4830;BME280;2429;52.586;14.322;2022-07-06T09:19:05;101989.88;;;21.38;34.71
4830;BME280;2429;52.586;14.322;2022-07-06T09:21:32;102000.13;;;21.63;34.37
4830;BME280;2429;52.586;14.322;2022-07-06T09:24:00;102006.31;;;22.30;31.26
4830;BME280;2429;52.586;14.322;2022-07-06T09:26:29;101997.19;;;21.46;32.37
4830;BME280;2429;52.586;14.322;2022-07-06T09:28:56;102012.22;;;20.69;33.32
4830;BME280;2429;52.586;14.322;2022-07-06T09:31:24;102013.00;;;19.88;34.72
4830;BME280;2429;52.586;14.322;2022-07-06T09:36:36;102031.09;;;18.99;36.61
4830;BME280;2429;52.586;14.322;2022-07-06T09:41:44;102033.94;;;18.52;37.09
4830;BME280;2429;52.586;14.322;2022-07-06T09:44:12;102032.72;;;18.56;37.31
4830;BME280;2429;52.586;14.322;2022-07-06T09:46:42;102033.09;;;18.63;37.88
4830;BME280;2429;52.586;14.322;2022-07-06T09:49:10;102030.16;;;18.88;37.51
4830;BME280;2429;52.586;14.322;2022-07-06T09:51:37;102035.63;;;19.19;36.82
4830;BME280;2429;52.586;14.322;2022-07-06T09:54:08;102029.88;;;19.68;35.85
4830;BME280;2429;52.586;14.322;2022-07-06T09:56:38;102023.13;;;20.15;35.88
4830;BME280;2429;52.586;14.322;2022-07-06T09:59:09;102026.50;;;20.48;34.11
4830;BME280;2429;52.586;14.322;2022-07-06T10:01:38;102027.69;;;20.25;33.71
4830;BME280;2429;52.586;14.322;2022-07-06T10:04:06;102025.16;;;20.02;34.74
4830;BME280;2429;52.586;14.322;2022-07-06T10:06:34;102027.72;;;20.13;33.42
4830;BME280;2429;52.586;14.322;2022-07-06T10:09:02;102026.38;;;19.98;32.91
4830;BME280;2429;52.586;14.322;2022-07-06T10:11:42;102029.84;;;20.10;33.66
4830;BME280;2429;52.586;14.322;2022-07-06T10:14:12;102026.59;;;20.37;33.77
4830;BME280;2429;52.586;14.322;2022-07-06T10:16:40;102032.41;;;20.52;33.81
4830;BME280;2429;52.586;14.322;2022-07-06T10:19:08;102033.47;;;20.71;34.67
4830;BME280;2429;52.586;14.322;2022-07-06T10:21:35;102035.44;;;20.28;34.03
4830;BME280;2429;52.586;14.322;2022-07-06T10:24:04;102040.50;;;20.00;33.79
4830;BME280;2429;52.586;14.322;2022-07-06T10:26:35;102038.34;;;19.73;33.14
4830;BME280;2429;52.586;14.322;2022-07-06T10:29:03;102041.09;;;19.61;32.83
4830;BME280;2429;52.586;14.322;2022-07-06T10:31:31;102052.06;;;19.47;33.33
4830;BME280;2429;52.586;14.322;2022-07-06T10:34:01;102045.50;;;19.51;33.94
4830;BME280;2429;52.586;14.322;2022-07-06T10:36:30;102035.75;;;19.61;33.38
4830;BME280;2429;52.586;14.322;2022-07-06T10:38:57;102041.13;;;19.71;32.48
4830;BME280;2429;52.586;14.322;2022-07-06T10:41:33;102038.28;;;19.84;32.61
4830;BME280;2429;52.586;14.322;2022-07-06T10:44:14;102037.56;;;20.03;32.12
4830;BME280;2429;52.586;14.322;2022-07-06T10:46:49;102036.22;;;20.19;32.46
4830;BME280;2429;52.586;14.322;2022-07-06T10:49:16;102028.88;;;20.11;32.85
4830;BME280;2429;52.586;14.322;2022-07-06T10:52:03;102034.59;;;20.06;33.11
4830;BME280;2429;52.586;14.322;2022-07-06T10:54:32;102033.53;;;20.19;34.27
4830;BME280;2429;52.586;14.322;2022-07-06T10:57:09;102035.50;;;20.16;32.08
4830;BME280;2429;52.586;14.322;2022-07-06T10:59:36;102027.88;;;20.12;32.56
4830;BME280;2429;52.586;14.322;2022-07-06T11:04:42;102037.47;;;20.45;33.09
4830;BME280;2429;52.586;14.322;2022-07-06T11:07:11;102034.19;;;20.73;31.64
4830;BME280;2429;52.586;14.322;2022-07-06T11:09:38;102043.06;;;20.32;32.20
4830;BME280;2429;52.586;14.322;2022-07-06T11:12:14;102033.47;;;20.09;33.00
4830;BME280;2429;52.586;14.322;2022-07-06T11:14:42;102040.84;;;19.95;33.78
4830;BME280;2429;52.586;14.322;2022-07-06T11:17:10;102037.53;;;19.82;33.74
4830;BME280;2429;52.586;14.322;2022-07-06T11:19:37;102038.06;;;19.55;33.93
4830;BME280;2429;52.586;14.322;2022-07-06T11:22:05;102042.09;;;19.49;35.10
4830;BME280;2429;52.586;14.322;2022-07-06T11:24:34;102032.94;;;19.63;34.78
4830;BME280;2429;52.586;14.322;2022-07-06T11:27:01;102038.06;;;19.76;34.55
4830;BME280;2429;52.586;14.322;2022-07-06T11:29:29;102032.72;;;19.97;34.57
4830;BME280;2429;52.586;14.322;2022-07-06T11:31:57;102031.00;;;20.17;34.31
4830;BME280;2429;52.586;14.322;2022-07-06T11:34:27;102023.84;;;20.48;34.23
4830;BME280;2429;52.586;14.322;2022-07-06T11:36:55;102030.19;;;20.57;33.37
4830;BME280;2429;52.586;14.322;2022-07-06T11:39:26;102031.72;;;20.50;33.38
4830;BME280;2429;52.586;14.322;2022-07-06T11:41:54;102025.19;;;20.83;33.18
4830;BME280;2429;52.586;14.322;2022-07-06T11:44:21;102025.78;;;20.87;32.24
4830;BME280;2429;52.586;14.322;2022-07-06T11:46:48;102020.97;;;20.91;31.86
4830;BME280;2429;52.586;14.322;2022-07-06T11:49:16;102014.41;;;21.14;31.99
4830;BME280;2429;52.586;14.322;2022-07-06T11:51:44;102017.50;;;21.49;32.55
4830;BME280;2429;52.586;14.322;2022-07-06T11:54:12;102009.16;;;21.71;32.58
4830;BME280;2429;52.586;14.322;2022-07-06T11:56:49;102019.34;;;21.38;32.45
4830;BME280;2429;52.586;14.322;2022-07-06T11:59:23;102020.53;;;20.76;33.30
4830;BME280;2429;52.586;14.322;2022-07-06T12:01:57;102016.09;;;20.55;33.87
4830;BME280;2429;52.586;14.322;2022-07-06T12:04:25;102006.53;;;20.52;33.23
4830;BME280;2429;52.586;14.322;2022-07-06T12:06:52;102009.41;;;20.80;33.55
4830;BME280;2429;52.586;14.322;2022-07-06T12:09:19;102007.22;;;21.34;31.01
4830;BME280;2429;52.586;14.322;2022-07-06T12:11:47;101999.56;;;22.16;29.72
4830;BME280;2429;52.586;14.322;2022-07-06T12:14:18;101996.75;;;22.18;29.38
4830;BME280;2429;52.586;14.322;2022-07-06T12:16:46;101995.56;;;21.92;29.65
4830;BME280;2429;52.586;14.322;2022-07-06T12:19:14;102002.25;;;21.59;30.29
4830;BME280;2429;52.586;14.322;2022-07-06T12:21:48;101997.19;;;21.46;30.54
4830;BME280;2429;52.586;14.322;2022-07-06T12:24:22;101991.13;;;21.44;31.11
4830;BME280;2429;52.586;14.322;2022-07-06T12:26:50;101991.75;;;21.95;31.84
4830;BME280;2429;52.586;14.322;2022-07-06T12:29:18;101991.00;;;22.68;30.20
4830;BME280;2429;52.586;14.322;2022-07-06T12:34:25;101990.97;;;23.14;27.73
4830;BME280;2429;52.586;14.322;2022-07-06T12:36:53;101984.28;;;23.00;27.05
4830;BME280;2429;52.586;14.322;2022-07-06T12:39:27;101985.00;;;22.29;28.90
4830;BME280;2429;52.586;14.322;2022-07-06T12:42:04;101973.59;;;22.90;27.93
4830;BME280;2429;52.586;14.322;2022-07-06T12:44:31;101979.38;;;23.31;27.13
4830;BME280;2429;52.586;14.322;2022-07-06T12:47:02;101982.50;;;23.27;27.33
4830;BME280;2429;52.586;14.322;2022-07-06T12:49:30;101976.75;;;23.04;27.42
4830;BME280;2429;52.586;14.322;2022-07-06T12:52:01;101979.34;;;22.77;29.55
4830;BME280;2429;52.586;14.322;2022-07-06T12:54:30;101990.59;;;22.35;29.92
4830;BME280;2429;52.586;14.322;2022-07-06T12:59:25;102001.56;;;21.77;31.59
4830;BME280;2429;52.586;14.322;2022-07-06T13:01:52;101996.63;;;21.52;31.41
4830;BME280;2429;52.586;14.322;2022-07-06T13:04:27;102000.88;;;21.26;32.06
4830;BME280;2429;52.586;14.322;2022-07-06T13:06:55;102011.31;;;21.09;32.06
4830;BME280;2429;52.586;14.322;2022-07-06T13:09:22;102013.91;;;20.80;32.57
4830;BME280;2429;52.586;14.322;2022-07-06T13:11:49;102015.31;;;20.64;33.67
4830;BME280;2429;52.586;14.322;2022-07-06T13:14:17;102013.59;;;20.63;32.62
4830;BME280;2429;52.586;14.322;2022-07-06T13:16:45;102010.00;;;20.43;32.81
4830;BME280;2429;52.586;14.322;2022-07-06T13:19:12;102008.84;;;20.26;33.57
4830;BME280;2429;52.586;14.322;2022-07-06T13:21:39;102011.69;;;20.34;34.03